Avalon — PBSF — position and weather

sailwx.info

Track history (hours):
 
Tides and Currents Weather Stations Pressure Air Temp Water Temp Dewpoint Dewpoint Depression Visibility Wind Speed Wind Dir Waves Ship Positions

Avalon

Last reported at 2015-Feb-28 01:32 UTC. Time now 2015-Mar-03 12:41 UTC.
Position N 58°51' E 018°27'.

Length 89 m; draft 3.5 m.

Type: Cargo ship. MMSI: 246578000.

Date/timePositionNaut miles runAvg speedWind from/ knotsBaromVisibWave heightAir tempDewpointWater temp
2015-Feb-28 01:32N 58°51' E 018°27'1111.3
2015-Feb-28 00:32N 58°44' E 018°09'71 1.5
2015-Feb-26 00:33N 57°38' E 017°17'10 9.6
2015-Feb-25 23:33N 57°29' E 017°15'10 9.6
2015-Feb-25 22:33N 57°19' E 017°14'10 9.8
2015-Feb-25 21:33N 57°09' E 017°11'114 8.7
2015-Feb-25 08:33N 55°35' E 015°16'9 8.9
2015-Feb-25 07:33N 55°31' E 015°02'10 9.7
2015-Feb-25 06:33N 55°26' E 014°47'10 9.7
2015-Feb-25 05:32N 55°19' E 014°34'9 9.5
2015-Feb-25 04:33N 55°12' E 014°24'10 9.5
2015-Feb-25 03:33N 55°05' E 014°13'13 9.7
2015-Feb-25 02:09N 54°59' E 013°53'610.2
2015-Feb-25 01:33N 54°56' E 013°42'1010.1
2015-Feb-25 00:33N 54°53' E 013°26'10 9.7
2015-Feb-24 23:33N 54°50' E 013°10'10 9.8
2015-Feb-24 22:33N 54°45' E 012°55'1010.0
2015-Feb-24 21:33N 54°40' E 012°40'1010.0
2015-Feb-24 20:34N 54°35' E 012°25'10 9.6
2015-Feb-24 19:33N 54°28' E 012°14'9 8.8
2015-Feb-24 18:33N 54°25' E 012°00'10 9.8
2015-Feb-24 17:33N 54°26' E 011°43'10 9.7
2015-Feb-24 16:33N 54°30' E 011°28'9 9.3
2015-Feb-24 15:33N 54°34' E 011°14'10 9.8
2015-Feb-24 14:32N 54°34' E 010°56'1010.1
2015-Feb-24 13:33N 54°33' E 010°39'1010.0
2015-Feb-24 12:33N 54°30' E 010°23'10 9.7
2015-Feb-24 11:33N 54°23' E 010°12'3 2.6
2015-Feb-24 10:33N 54°22' E 010°08'5 4.9
2015-Feb-24 09:33N 54°21' E 009°59'8 8.0
2015-Feb-24 08:33N 54°21' E 009°46'7 7.4
2015-Feb-24 07:33N 54°15' E 009°37'6 6.1
2015-Feb-24 06:33N 54°11' E 009°30'7 6.9
2015-Feb-24 05:33N 54°07' E 009°20'7 7.5
2015-Feb-24 04:33N 53°60' E 009°18'8 8.2
2015-Feb-24 03:33N 53°54' E 009°09'1 1.3
2015-Feb-24 02:33N 53°53' E 009°07'5 4.6
2015-Feb-24 01:33N 53°51' E 008°60'1211.6
2015-Feb-24 00:33N 53°54' E 008°41'1312.7
2015-Feb-23 23:33N 53°59' E 008°21'1212.0
2015-Feb-23 22:33N 53°58' E 008°00'1110.8
2015-Feb-23 21:32N 53°56' E 007°42'10 9.8
2015-Feb-23 20:31N 53°54' E 007°26'10 9.2
2015-Feb-23 19:29N 53°51' E 007°10'36 9.0
2015-Feb-23 15:32N 53°43' E 006°11'10 9.8
2015-Feb-23 14:33N 53°40' E 005°56'1010.0
2015-Feb-23 13:34N 53°36' E 005°40'1010.3
2015-Feb-23 12:33N 53°33' E 005°23'1110.8
2015-Feb-23 11:33N 53°30' E 005°06'1110.9
2015-Feb-23 10:33N 53°25' E 004°50'1010.2
2015-Feb-23 09:33N 53°18' E 004°38'1110.6
2015-Feb-23 08:30N 53°08' E 004°29'1110.8
2015-Feb-23 07:31N 52°59' E 004°21'1311.0
2015-Feb-23 06:21N 52°47' E 004°10'911.0
2015-Feb-23 05:31N 52°41' E 004°00'83 9.1
2015-Feb-22 20:26N 51°39' E 002°29'9 9.9
2015-Feb-22 19:30N 51°32' E 002°20'1010.6
2015-Feb-22 18:33N 51°24' E 002°11'1111.4
2015-Feb-22 17:34N 51°14' E 002°02'1212.1
2015-Feb-22 16:34N 51°07' E 001°46'1313.2
2015-Feb-22 15:34N 50°57' E 001°32'320 7.3
2015-Feb-20 19:33N 51°57' W 006°52'10 9.7
2015-Feb-20 18:33N 52°07' W 006°57'8 7.8
2015-Feb-20 17:33N 52°15' W 006°58'3 2.3
2015-Feb-20 16:28N 52°16' W 007°02'0 0.0
2015-Feb-20 15:31N 52°16' W 007°02'0 0.0
2015-Feb-20 14:31N 52°16' W 007°02'0 0.0
2015-Feb-20 13:31N 52°16' W 007°02'0 0.0
2015-Feb-20 12:31N 52°16' W 007°02'0 0.0
2015-Feb-20 11:31N 52°16' W 007°02'0 0.0
2015-Feb-20 10:31N 52°16' W 007°02'0 0.0
2015-Feb-20 09:31N 52°16' W 007°02'0 0.0
2015-Feb-20 08:31N 52°16' W 007°02'0 0.0
2015-Feb-20 00:31N 52°16' W 007°02'0 0.0
2015-Feb-19 23:31N 52°16' W 007°02'0 0.0
2015-Feb-19 22:28N 52°16' W 007°02'0 0.0
2015-Feb-19 21:28N 52°16' W 007°02'0 0.0
2015-Feb-19 20:31N 52°16' W 007°02'0 0.0
2015-Feb-19 19:28N 52°16' W 007°02'0 0.0
2015-Feb-19 18:31N 52°16' W 007°02'0 0.0
2015-Feb-19 17:31N 52°16' W 007°02'0 0.0
2015-Feb-19 16:31N 52°16' W 007°02'0 0.0
2015-Feb-19 15:31N 52°16' W 007°02'0 0.0
2015-Feb-19 14:31N 52°16' W 007°02'0 0.0
2015-Feb-19 13:28N 52°16' W 007°02'0 0.0
2015-Feb-19 12:31N 52°16' W 007°02'0 0.0
2015-Feb-19 11:31N 52°16' W 007°02'0 0.0
2015-Feb-19 10:28N 52°16' W 007°02'0 0.0
2015-Feb-19 09:31N 52°16' W 007°02'0 0.0
2015-Feb-19 08:31N 52°16' W 007°02'0 0.0
2015-Feb-19 07:31N 52°16' W 007°02'0 0.0
2015-Feb-19 06:31N 52°16' W 007°02'0 0.0
2015-Feb-19 05:31N 52°16' W 007°02'0 0.0
2015-Feb-19 04:31N 52°16' W 007°02'0 0.0
2015-Feb-19 03:31N 52°16' W 007°02'0 0.0
2015-Feb-19 02:31N 52°16' W 007°02'0 0.0
2015-Feb-19 01:31N 52°16' W 007°02'0 0.0
2015-Feb-19 00:31N 52°16' W 007°02'0 0.0
2015-Feb-18 23:31N 52°16' W 007°02'0 0.0
2015-Feb-18 22:28N 52°16' W 007°02'0 0.0
2015-Feb-18 21:28N 52°16' W 007°02'0 0.0
2015-Feb-18 20:28N 52°16' W 007°02'0 0.0
2015-Feb-18 19:28N 52°16' W 007°02'0 0.0
2015-Feb-18 18:28N 52°16' W 007°02'0 0.0
2015-Feb-18 17:28N 52°16' W 007°02'0 0.0
2015-Feb-18 16:31N 52°16' W 007°02'0 0.0
2015-Feb-18 15:28N 52°16' W 007°02'0 0.0
2015-Feb-18 14:31N 52°16' W 007°02'0 0.0
2015-Feb-18 13:31N 52°16' W 007°02'0 0.0
2015-Feb-18 12:31N 52°16' W 007°02'0 0.0
2015-Feb-18 11:31N 52°16' W 007°02'0 0.0
2015-Feb-18 10:28N 52°16' W 007°02'0 0.0
2015-Feb-18 09:28N 52°16' W 007°02'0 0.0
2015-Feb-18 08:28N 52°16' W 007°02'0 0.0
2015-Feb-18 07:31N 52°16' W 007°02'0 0.0
2015-Feb-18 06:25N 52°16' W 007°02'0 0.0
2015-Feb-18 05:31N 52°16' W 007°02'0 0.0
2015-Feb-18 04:31N 52°16' W 007°02'0 0.0
2015-Feb-18 03:28N 52°16' W 007°02'0 0.0
2015-Feb-18 02:25N 52°16' W 007°02'  
Track history (hours):
 
Tides and Currents Weather Stations Pressure Air Temp Water Temp Dewpoint Dewpoint Depression Visibility Wind Speed Wind Dir Waves Ship Positions

Avalon

Last reported at 2015-Feb-28 01:32 UTC. Time now 2015-Mar-03 12:41 UTC.
Position N 58°51' E 018°27'.

Length 89 m; draft 3.5 m.

Type: Cargo ship. MMSI: 246578000.

Date/timePositionNaut miles runAvg speedWind from/ knotsBaromVisibWave heightAir tempDewpointWater temp
2015-Feb-28 01:32N 58°51' E 018°27'1111.3
2015-Feb-28 00:32N 58°44' E 018°09'71 1.5
2015-Feb-26 00:33N 57°38' E 017°17'10 9.6
2015-Feb-25 23:33N 57°29' E 017°15'10 9.6
2015-Feb-25 22:33N 57°19' E 017°14'10 9.8
2015-Feb-25 21:33N 57°09' E 017°11'114 8.7
2015-Feb-25 08:33N 55°35' E 015°16'9 8.9
2015-Feb-25 07:33N 55°31' E 015°02'10 9.7
2015-Feb-25 06:33N 55°26' E 014°47'10 9.7
2015-Feb-25 05:32N 55°19' E 014°34'9 9.5
2015-Feb-25 04:33N 55°12' E 014°24'10 9.5
2015-Feb-25 03:33N 55°05' E 014°13'13 9.7
2015-Feb-25 02:09N 54°59' E 013°53'610.2
2015-Feb-25 01:33N 54°56' E 013°42'1010.1
2015-Feb-25 00:33N 54°53' E 013°26'10 9.7
2015-Feb-24 23:33N 54°50' E 013°10'10 9.8
2015-Feb-24 22:33N 54°45' E 012°55'1010.0
2015-Feb-24 21:33N 54°40' E 012°40'1010.0
2015-Feb-24 20:34N 54°35' E 012°25'10 9.6
2015-Feb-24 19:33N 54°28' E 012°14'9 8.8
2015-Feb-24 18:33N 54°25' E 012°00'10 9.8
2015-Feb-24 17:33N 54°26' E 011°43'10 9.7
2015-Feb-24 16:33N 54°30' E 011°28'9 9.3
2015-Feb-24 15:33N 54°34' E 011°14'10 9.8
2015-Feb-24 14:32N 54°34' E 010°56'1010.1
2015-Feb-24 13:33N 54°33' E 010°39'1010.0
2015-Feb-24 12:33N 54°30' E 010°23'10 9.7
2015-Feb-24 11:33N 54°23' E 010°12'3 2.6
2015-Feb-24 10:33N 54°22' E 010°08'5 4.9
2015-Feb-24 09:33N 54°21' E 009°59'8 8.0
2015-Feb-24 08:33N 54°21' E 009°46'7 7.4
2015-Feb-24 07:33N 54°15' E 009°37'6 6.1
2015-Feb-24 06:33N 54°11' E 009°30'7 6.9
2015-Feb-24 05:33N 54°07' E 009°20'7 7.5
2015-Feb-24 04:33N 53°60' E 009°18'8 8.2
2015-Feb-24 03:33N 53°54' E 009°09'1 1.3
2015-Feb-24 02:33N 53°53' E 009°07'5 4.6
2015-Feb-24 01:33N 53°51' E 008°60'1211.6
2015-Feb-24 00:33N 53°54' E 008°41'1312.7
2015-Feb-23 23:33N 53°59' E 008°21'1212.0
2015-Feb-23 22:33N 53°58' E 008°00'1110.8
2015-Feb-23 21:32N 53°56' E 007°42'10 9.8
2015-Feb-23 20:31N 53°54' E 007°26'10 9.2
2015-Feb-23 19:29N 53°51' E 007°10'36 9.0
2015-Feb-23 15:32N 53°43' E 006°11'10 9.8
2015-Feb-23 14:33N 53°40' E 005°56'1010.0
2015-Feb-23 13:34N 53°36' E 005°40'1010.3
2015-Feb-23 12:33N 53°33' E 005°23'1110.8
2015-Feb-23 11:33N 53°30' E 005°06'1110.9
2015-Feb-23 10:33N 53°25' E 004°50'1010.2
2015-Feb-23 09:33N 53°18' E 004°38'1110.6
2015-Feb-23 08:30N 53°08' E 004°29'1110.8
2015-Feb-23 07:31N 52°59' E 004°21'1311.0
2015-Feb-23 06:21N 52°47' E 004°10'911.0
2015-Feb-23 05:31N 52°41' E 004°00'83 9.1
2015-Feb-22 20:26N 51°39' E 002°29'9 9.9
2015-Feb-22 19:30N 51°32' E 002°20'1010.6
2015-Feb-22 18:33N 51°24' E 002°11'1111.4
2015-Feb-22 17:34N 51°14' E 002°02'1212.1
2015-Feb-22 16:34N 51°07' E 001°46'1313.2
2015-Feb-22 15:34N 50°57' E 001°32'320 7.3
2015-Feb-20 19:33N 51°57' W 006°52'10 9.7
2015-Feb-20 18:33N 52°07' W 006°57'8 7.8
2015-Feb-20 17:33N 52°15' W 006°58'3 2.3
2015-Feb-20 16:28N 52°16' W 007°02'0 0.0
2015-Feb-20 15:31N 52°16' W 007°02'0 0.0
2015-Feb-20 14:31N 52°16' W 007°02'0 0.0
2015-Feb-20 13:31N 52°16' W 007°02'0 0.0
2015-Feb-20 12:31N 52°16' W 007°02'0 0.0
2015-Feb-20 11:31N 52°16' W 007°02'0 0.0
2015-Feb-20 10:31N 52°16' W 007°02'0 0.0
2015-Feb-20 09:31N 52°16' W 007°02'0 0.0
2015-Feb-20 08:31N 52°16' W 007°02'0 0.0
2015-Feb-20 00:31N 52°16' W 007°02'0 0.0
2015-Feb-19 23:31N 52°16' W 007°02'0 0.0
2015-Feb-19 22:28N 52°16' W 007°02'0 0.0
2015-Feb-19 21:28N 52°16' W 007°02'0 0.0
2015-Feb-19 20:31N 52°16' W 007°02'0 0.0
2015-Feb-19 19:28N 52°16' W 007°02'0 0.0
2015-Feb-19 18:31N 52°16' W 007°02'0 0.0
2015-Feb-19 17:31N 52°16' W 007°02'0 0.0
2015-Feb-19 16:31N 52°16' W 007°02'0 0.0
2015-Feb-19 15:31N 52°16' W 007°02'0 0.0
2015-Feb-19 14:31N 52°16' W 007°02'0 0.0
2015-Feb-19 13:28N 52°16' W 007°02'0 0.0
2015-Feb-19 12:31N 52°16' W 007°02'0 0.0
2015-Feb-19 11:31N 52°16' W 007°02'0 0.0
2015-Feb-19 10:28N 52°16' W 007°02'0 0.0
2015-Feb-19 09:31N 52°16' W 007°02'0 0.0
2015-Feb-19 08:31N 52°16' W 007°02'0 0.0
2015-Feb-19 07:31N 52°16' W 007°02'0 0.0
2015-Feb-19 06:31N 52°16' W 007°02'0 0.0
2015-Feb-19 05:31N 52°16' W 007°02'0 0.0
2015-Feb-19 04:31N 52°16' W 007°02'0 0.0
2015-Feb-19 03:31N 52°16' W 007°02'0 0.0
2015-Feb-19 02:31N 52°16' W 007°02'0 0.0
2015-Feb-19 01:31N 52°16' W 007°02'0 0.0
2015-Feb-19 00:31N 52°16' W 007°02'0 0.0
2015-Feb-18 23:31N 52°16' W 007°02'0 0.0
2015-Feb-18 22:28N 52°16' W 007°02'0 0.0
2015-Feb-18 21:28N 52°16' W 007°02'0 0.0
2015-Feb-18 20:28N 52°16' W 007°02'0 0.0
2015-Feb-18 19:28N 52°16' W 007°02'0 0.0
2015-Feb-18 18:28N 52°16' W 007°02'0 0.0
2015-Feb-18 17:28N 52°16' W 007°02'0 0.0
2015-Feb-18 16:31N 52°16' W 007°02'0 0.0
2015-Feb-18 15:28N 52°16' W 007°02'0 0.0
2015-Feb-18 14:31N 52°16' W 007°02'0 0.0
2015-Feb-18 13:31N 52°16' W 007°02'0 0.0
2015-Feb-18 12:31N 52°16' W 007°02'0 0.0
2015-Feb-18 11:31N 52°16' W 007°02'0 0.0
2015-Feb-18 10:28N 52°16' W 007°02'0 0.0
2015-Feb-18 09:28N 52°16' W 007°02'0 0.0
2015-Feb-18 08:28N 52°16' W 007°02'0 0.0
2015-Feb-18 07:31N 52°16' W 007°02'0 0.0
2015-Feb-18 06:25N 52°16' W 007°02'0 0.0
2015-Feb-18 05:31N 52°16' W 007°02'0 0.0
2015-Feb-18 04:31N 52°16' W 007°02'0 0.0
2015-Feb-18 03:28N 52°16' W 007°02'0 0.0
2015-Feb-18 02:25N 52°16' W 007°02'  

Dump ship's entire track history